METAR Data
IDs: Format: Raw Decoded Include TAF

Data at: 1731 UTC 24 Jun 2019

KMQY 241656Z 23015G18KT 10SM BKN026 BKN034 28/24 A2981 RMK AO2 RAB32E45 SLP966 P0000 T02830239